createdAt,value
2022-12-14T00:00:06.695Z,-3.47
2022-12-14T00:00:43.994Z,-3.47
2022-12-14T00:01:17.626Z,-3.47
2022-12-14T00:01:49.791Z,-3.47
2022-12-14T00:02:21.272Z,-3.49
2022-12-14T00:02:52.784Z,-3.48
2022-12-14T00:03:24.675Z,-3.47
2022-12-14T00:03:56.460Z,-3.48
2022-12-14T00:04:27.875Z,-3.47
2022-12-14T00:04:59.202Z,-3.48
2022-12-14T00:05:30.511Z,-3.50
2022-12-14T00:06:25.481Z,-3.49
2022-12-14T00:06:56.913Z,-3.50
2022-12-14T00:07:29.238Z,-3.51
2022-12-14T00:08:00.718Z,-3.52
2022-12-14T00:08:36.763Z,-3.52
2022-12-14T00:09:11.246Z,-3.53
2022-12-14T00:09:42.576Z,-3.55
2022-12-14T00:10:14.010Z,-3.55
2022-12-14T00:10:45.400Z,-3.52
2022-12-14T00:11:17.488Z,-3.53
2022-12-14T00:11:48.835Z,-3.53
2022-12-14T00:12:20.190Z,-3.56
2022-12-14T00:12:51.592Z,-3.55
2022-12-14T00:13:23.032Z,-3.57
2022-12-14T00:13:57.748Z,-3.54
2022-12-14T00:14:29.154Z,-3.56
2022-12-14T00:15:00.537Z,-3.56
2022-12-14T00:15:32.753Z,-3.58
2022-12-14T00:16:12.455Z,-3.53
2022-12-14T00:16:43.884Z,-3.52
2022-12-14T00:17:15.693Z,-3.52
2022-12-14T00:17:47.072Z,-3.52
2022-12-14T00:18:22.501Z,-3.54
2022-12-14T00:18:56.462Z,-3.54
2022-12-14T00:19:28.128Z,-3.51
2022-12-14T00:19:59.825Z,-3.52
2022-12-14T00:20:33.375Z,-3.55
2022-12-14T00:21:10.233Z,-3.52
2022-12-14T00:21:41.774Z,-3.53
2022-12-14T00:22:13.303Z,-3.54
2022-12-14T00:22:44.728Z,-3.55
2022-12-14T00:23:16.460Z,-3.52
2022-12-14T00:23:50.355Z,-3.55
2022-12-14T00:24:21.708Z,-3.51
2022-12-14T00:24:53.046Z,-3.50
2022-12-14T00:25:25.098Z,-3.50
2022-12-14T00:25:56.996Z,-3.50
2022-12-14T00:26:31.488Z,-3.52
2022-12-14T00:27:02.959Z,-3.51
2022-12-14T00:27:34.332Z,-3.52
2022-12-14T00:28:05.894Z,-3.50
2022-12-14T00:28:37.762Z,-3.51
2022-12-14T00:29:09.082Z,-3.51
2022-12-14T00:29:40.587Z,-3.51
2022-12-14T00:30:14.193Z,-3.51
2022-12-14T00:30:45.619Z,-3.52
2022-12-14T00:31:17.424Z,-3.49
2022-12-14T00:31:49.964Z,-3.49
2022-12-14T00:32:21.368Z,-3.49
2022-12-14T00:32:52.684Z,-3.50
2022-12-14T00:33:24.148Z,-3.50
2022-12-14T00:33:55.643Z,-3.51
2022-12-14T00:34:27.070Z,-3.52
2022-12-14T00:34:58.382Z,-3.49
2022-12-14T00:35:29.754Z,-3.49
2022-12-14T00:36:01.772Z,-3.46
2022-12-14T00:36:33.171Z,-3.49
2022-12-14T00:37:04.984Z,-3.47
2022-12-14T00:37:36.740Z,-3.43
2022-12-14T00:38:08.203Z,-3.47
2022-12-14T00:38:40.259Z,-3.45
2022-12-14T00:39:11.707Z,-3.46
2022-12-14T00:39:43.157Z,-3.40
2022-12-14T00:40:14.618Z,-3.40
2022-12-14T00:40:45.973Z,-3.43
2022-12-14T00:41:17.312Z,-3.42
2022-12-14T00:41:48.903Z,-3.44
2022-12-14T00:42:20.268Z,-3.40
2022-12-14T00:42:51.622Z,-3.39
2022-12-14T00:43:23.472Z,-3.40
2022-12-14T00:43:54.905Z,-3.41
2022-12-14T00:44:26.307Z,-3.42
2022-12-14T00:44:57.941Z,-3.45
2022-12-14T00:45:29.341Z,-3.47
2022-12-14T00:46:01.037Z,-3.43
2022-12-14T00:46:32.533Z,-3.46
2022-12-14T00:47:03.996Z,-3.47
2022-12-14T00:47:40.521Z,-3.44
2022-12-14T00:48:12.958Z,-3.43
2022-12-14T00:48:44.515Z,-3.45
2022-12-14T00:49:15.886Z,-3.44
2022-12-14T00:49:48.708Z,-3.43
2022-12-14T00:50:20.286Z,-3.45
2022-12-14T00:50:53.418Z,-3.46
2022-12-14T00:51:24.808Z,-3.45
2022-12-14T00:51:56.189Z,-3.47
2022-12-14T00:52:27.801Z,-3.45
2022-12-14T00:52:59.399Z,-3.47
2022-12-14T00:53:31.763Z,-3.45
2022-12-14T00:54:03.243Z,-3.45
2022-12-14T00:54:34.617Z,-3.45
2022-12-14T00:55:06.483Z,-3.44
2022-12-14T00:55:39.592Z,-3.45
2022-12-14T00:56:11.513Z,-3.47
2022-12-14T00:56:42.872Z,-3.46
2022-12-14T00:57:14.220Z,-3.49
2022-12-14T00:57:45.571Z,-3.51
2022-12-14T00:58:19.361Z,-3.51
2022-12-14T00:58:54.214Z,-3.48
2022-12-14T00:59:27.437Z,-3.47
2022-12-14T00:59:58.851Z,-3.47
2022-12-14T01:00:30.727Z,-3.46
2022-12-14T01:01:07.245Z,-3.45
2022-12-14T01:01:38.733Z,-3.47
2022-12-14T01:02:10.286Z,-3.47
2022-12-14T01:02:41.764Z,-3.50
2022-12-14T01:03:13.469Z,-3.49
2022-12-14T01:03:44.958Z,-3.49
2022-12-14T01:04:19.610Z,-3.49
2022-12-14T01:04:51.104Z,-3.47
2022-12-14T01:05:22.530Z,-3.49
2022-12-14T01:05:53.896Z,-3.48
2022-12-14T01:06:25.242Z,-3.48
2022-12-14T01:06:56.722Z,-3.47
2022-12-14T01:07:28.144Z,-3.47
2022-12-14T01:07:59.674Z,-3.49
2022-12-14T01:08:35.934Z,-3.51
2022-12-14T01:09:07.854Z,-3.50
2022-12-14T01:09:39.222Z,-3.50
2022-12-14T01:10:10.675Z,-3.49
2022-12-14T01:10:42.181Z,-3.49
2022-12-14T01:11:14.667Z,-3.49
2022-12-14T01:11:46.781Z,-3.51
2022-12-14T01:12:18.207Z,-3.47
2022-12-14T01:12:49.589Z,-3.45
2022-12-14T01:13:21.108Z,-3.46
2022-12-14T01:13:52.628Z,-3.50
2022-12-14T01:14:24.035Z,-3.49
2022-12-14T01:14:55.373Z,-3.51
2022-12-14T01:15:26.798Z,-3.44
2022-12-14T01:16:03.344Z,-3.46
2022-12-14T01:16:34.881Z,-3.44
2022-12-14T01:17:07.026Z,-3.45
2022-12-14T01:17:38.392Z,-3.49
2022-12-14T01:18:09.954Z,-3.44
2022-12-14T01:18:43.237Z,-3.47
2022-12-14T01:19:15.340Z,-3.47
2022-12-14T01:19:49.072Z,-3.46
2022-12-14T01:20:20.848Z,-3.43
2022-12-14T01:20:52.178Z,-3.47
2022-12-14T01:21:24.793Z,-3.45
2022-12-14T01:21:56.211Z,-3.51
2022-12-14T01:22:27.621Z,-3.51
2022-12-14T01:22:59.044Z,-3.52
2022-12-14T01:23:30.422Z,-3.51
2022-12-14T01:24:03.753Z,-3.52
2022-12-14T01:24:35.187Z,-3.53
2022-12-14T01:25:06.771Z,-3.54
2022-12-14T01:25:38.160Z,-3.54
2022-12-14T01:26:10.416Z,-3.50
2022-12-14T01:26:41.980Z,-3.51
2022-12-14T01:27:13.561Z,-3.55
2022-12-14T01:27:45.997Z,-3.54
2022-12-14T01:28:36.049Z,-3.49
2022-12-14T01:29:08.027Z,-3.49
2022-12-14T01:29:39.415Z,-3.49
2022-12-14T01:30:11.388Z,-3.51
2022-12-14T01:30:42.780Z,-3.52
2022-12-14T01:31:17.532Z,-3.50
2022-12-14T01:31:49.213Z,-3.53
2022-12-14T01:32:20.888Z,-3.50
2022-12-14T01:32:52.302Z,-3.55
2022-12-14T01:33:23.924Z,-3.54
2022-12-14T01:33:56.262Z,-3.52
2022-12-14T01:34:27.620Z,-3.53
2022-12-14T01:34:58.987Z,-3.56
2022-12-14T01:35:30.397Z,-3.51
2022-12-14T01:36:10.517Z,-3.51
2022-12-14T01:36:41.882Z,-3.52
2022-12-14T01:37:13.271Z,-3.54
2022-12-14T01:37:44.751Z,-3.57
2022-12-14T01:38:16.075Z,-3.56
2022-12-14T01:38:47.402Z,-3.57
2022-12-14T01:39:18.767Z,-3.55
2022-12-14T01:39:50.158Z,-3.56
2022-12-14T01:40:21.550Z,-3.58
2022-12-14T01:40:57.712Z,-3.55
2022-12-14T01:41:40.994Z,-3.55
2022-12-14T01:42:14.307Z,-3.55
2022-12-14T01:42:45.697Z,-3.57
2022-12-14T01:43:17.040Z,-3.57
2022-12-14T01:43:54.417Z,-3.59
2022-12-14T01:44:25.758Z,-3.56
2022-12-14T01:44:58.437Z,-3.62
2022-12-14T01:45:30.032Z,-3.60
2022-12-14T01:46:01.509Z,-3.63
2022-12-14T01:46:36.234Z,-3.60
2022-12-14T01:47:22.772Z,-3.61
2022-12-14T01:48:02.223Z,-3.62
2022-12-14T01:48:33.570Z,-3.65
2022-12-14T01:49:20.808Z,-3.61
2022-12-14T01:50:02.728Z,-3.62
2022-12-14T01:50:39.905Z,-3.65
2022-12-14T01:51:11.311Z,-3.62
2022-12-14T01:51:51.367Z,-3.64
2022-12-14T01:52:45.411Z,-3.62
2022-12-14T01:53:21.817Z,-3.64
2022-12-14T01:53:55.475Z,-3.66
2022-12-14T01:54:31.796Z,-3.65
2022-12-14T01:55:06.142Z,-3.64
2022-12-14T01:55:48.687Z,-3.65
2022-12-14T01:56:20.768Z,-3.65
2022-12-14T01:56:53.587Z,-3.67
2022-12-14T01:57:31.579Z,-3.66
2022-12-14T01:58:16.939Z,-3.66
2022-12-14T01:58:48.522Z,-3.68
2022-12-14T01:59:28.728Z,-3.68
2022-12-14T02:00:06.913Z,-3.70
2022-12-14T02:00:39.547Z,-3.69
2022-12-14T02:01:11.646Z,-3.70
2022-12-14T02:01:43.542Z,-3.71
2022-12-14T02:02:17.339Z,-3.72
2022-12-14T02:03:04.207Z,-3.70
2022-12-14T02:03:43.709Z,-3.71
2022-12-14T02:04:18.990Z,-3.72
2022-12-14T02:04:59.938Z,-3.72
2022-12-14T02:05:33.790Z,-3.73
2022-12-14T02:06:13.889Z,-3.77
2022-12-14T02:06:48.994Z,-3.78
2022-12-14T02:07:21.273Z,-3.77
2022-12-14T02:07:55.496Z,-3.77
2022-12-14T02:08:27.879Z,-3.77
2022-12-14T02:08:59.478Z,-3.78
2022-12-14T02:09:36.706Z,-3.77
2022-12-14T02:10:09.593Z,-3.77
2022-12-14T02:10:41.722Z,-3.77
2022-12-14T02:11:13.065Z,-3.79
2022-12-14T02:11:52.314Z,-3.79
2022-12-14T02:12:34.893Z,-3.79
2022-12-14T02:13:18.131Z,-3.79
2022-12-14T02:13:49.514Z,-3.79
2022-12-14T02:14:21.292Z,-3.79
2022-12-14T02:14:53.194Z,-3.79
2022-12-14T02:15:24.963Z,-3.81
2022-12-14T02:15:56.412Z,-3.80
2022-12-14T02:16:27.918Z,-3.81
2022-12-14T02:17:00.047Z,-3.82
2022-12-14T02:17:31.508Z,-3.79
2022-12-14T02:18:05.432Z,-3.84
2022-12-14T02:18:36.871Z,-3.84
2022-12-14T02:19:08.199Z,-3.84
2022-12-14T02:19:41.169Z,-3.83
2022-12-14T02:20:14.678Z,-3.86
2022-12-14T02:21:13.595Z,-3.83
2022-12-14T02:22:23.815Z,-3.83
2022-12-14T02:23:36.659Z,-3.83
2022-12-14T02:24:17.285Z,-3.84
2022-12-14T02:25:05.838Z,-3.85
2022-12-14T02:25:49.486Z,-3.84
2022-12-14T02:26:53.098Z,-3.86
2022-12-14T02:27:58.002Z,-3.88
2022-12-14T02:28:59.735Z,-3.89
2022-12-14T02:29:45.868Z,-3.90
2022-12-14T02:30:21.241Z,-3.91
2022-12-14T02:31:00.162Z,-3.93
2022-12-14T02:31:57.949Z,-3.92
2022-12-14T02:32:32.241Z,-3.93
2022-12-14T02:33:26.316Z,-3.94
2022-12-14T02:34:12.944Z,-3.95
2022-12-14T02:35:05.919Z,-3.95
2022-12-14T02:35:58.887Z,-3.97
2022-12-14T02:36:41.468Z,-3.97
2022-12-14T02:37:25.218Z,-3.98
2022-12-14T02:38:28.246Z,-3.99
2022-12-14T02:39:09.098Z,-4.03
2022-12-14T02:39:43.601Z,-4.01
2022-12-14T02:40:36.446Z,-4.03
2022-12-14T02:41:13.504Z,-4.04
2022-12-14T02:42:11.378Z,-4.05
2022-12-14T02:43:00.685Z,-4.07
2022-12-14T02:43:50.822Z,-4.07
2022-12-14T02:44:29.356Z,-4.09
2022-12-14T02:45:18.009Z,-4.10
2022-12-14T02:46:26.585Z,-4.09
2022-12-14T02:47:06.462Z,-4.11
2022-12-14T02:48:09.724Z,-4.12
2022-12-14T02:48:47.933Z,-4.13
2022-12-14T02:49:37.702Z,-4.13
2022-12-14T02:50:14.363Z,-4.13
2022-12-14T02:51:01.407Z,-4.14
2022-12-14T02:51:56.972Z,-4.15
2022-12-14T02:53:02.948Z,-4.15
2022-12-14T02:53:36.666Z,-4.17
2022-12-14T02:54:26.911Z,-4.21
2022-12-14T02:55:05.602Z,-4.19
2022-12-14T02:55:40.833Z,-4.20
2022-12-14T02:56:18.436Z,-4.23
2022-12-14T02:56:56.952Z,-4.19
2022-12-14T02:57:36.173Z,-4.20
2022-12-14T02:58:24.043Z,-4.22
2022-12-14T02:58:56.890Z,-4.22
2022-12-14T02:59:28.613Z,-4.19
2022-12-14T03:00:03.370Z,-4.19
2022-12-14T03:00:37.285Z,-4.21
2022-12-14T03:01:12.794Z,-4.19
2022-12-14T03:01:47.339Z,-4.20
2022-12-14T03:02:19.209Z,-4.22
2022-12-14T03:02:52.825Z,-4.20
2022-12-14T03:03:24.766Z,-4.20
2022-12-14T03:03:56.371Z,-4.19
2022-12-14T03:04:27.796Z,-4.20
2022-12-14T03:04:59.227Z,-4.19
2022-12-14T03:05:30.882Z,-4.21
2022-12-14T03:06:14.938Z,-4.19
2022-12-14T03:06:59.587Z,-4.20
2022-12-14T03:07:33.796Z,-4.20
2022-12-14T03:08:10.353Z,-4.20
2022-12-14T03:08:46.139Z,-4.21
2022-12-14T03:09:18.822Z,-4.25
2022-12-14T03:09:50.200Z,-4.21
2022-12-14T03:10:32.677Z,-4.21
2022-12-14T03:11:06.612Z,-4.28
2022-12-14T03:11:46.488Z,-4.24
2022-12-14T03:12:20.528Z,-4.24
2022-12-14T03:13:12.372Z,-4.25
2022-12-14T03:13:51.671Z,-4.24
2022-12-14T03:14:31.988Z,-4.26
2022-12-14T03:15:05.081Z,-4.27
2022-12-14T03:15:40.888Z,-4.29
2022-12-14T03:16:30.481Z,-4.28
2022-12-14T03:17:19.197Z,-4.29
2022-12-14T03:17:56.141Z,-4.29
2022-12-14T03:18:33.587Z,-4.34
2022-12-14T03:19:28.271Z,-4.35
2022-12-14T03:20:07.618Z,-4.34
2022-12-14T03:20:42.506Z,-4.37
2022-12-14T03:21:18.807Z,-4.36
2022-12-14T03:21:55.983Z,-4.37
2022-12-14T03:22:34.071Z,-4.38
2022-12-14T03:23:13.305Z,-4.38
2022-12-14T03:23:48.646Z,-4.38
2022-12-14T03:24:25.364Z,-4.40
2022-12-14T03:25:03.004Z,-4.41
2022-12-14T03:26:53.459Z,-4.41
2022-12-14T03:27:29.563Z,-4.42
2022-12-14T03:28:11.148Z,-4.45
2022-12-14T03:28:48.019Z,-4.44
2022-12-14T03:29:27.324Z,-4.45
2022-12-14T03:30:43.818Z,-4.46
2022-12-14T03:31:25.672Z,-4.47
2022-12-14T03:32:02.136Z,-4.47
2022-12-14T03:32:37.618Z,-4.47
2022-12-14T03:33:17.035Z,-4.48
2022-12-14T03:33:49.959Z,-4.51
2022-12-14T03:34:28.383Z,-4.48
2022-12-14T03:35:04.643Z,-4.51
2022-12-14T03:35:46.041Z,-4.50
2022-12-14T03:36:27.330Z,-4.52
2022-12-14T03:37:08.730Z,-4.50
2022-12-14T03:37:53.393Z,-4.53
2022-12-14T03:38:32.320Z,-4.50
2022-12-14T03:39:07.753Z,-4.52
2022-12-14T03:39:42.087Z,-4.53
2022-12-14T03:40:15.011Z,-4.52
2022-12-14T03:40:57.067Z,-4.52
2022-12-14T03:41:34.411Z,-4.51
2022-12-14T03:42:12.180Z,-4.52
2022-12-14T03:42:58.625Z,-4.53
2022-12-14T03:43:49.868Z,-4.57
2022-12-14T03:44:32.270Z,-4.55
2022-12-14T03:45:08.722Z,-4.58
2022-12-14T03:46:05.139Z,-4.57
2022-12-14T03:46:42.492Z,-4.57
2022-12-14T03:47:13.821Z,-4.57
2022-12-14T03:48:17.975Z,-4.58
2022-12-14T03:48:51.776Z,-4.59
2022-12-14T03:49:49.927Z,-4.61
2022-12-14T03:50:27.794Z,-4.62
2022-12-14T03:51:14.084Z,-4.63
2022-12-14T03:52:12.931Z,-4.64
2022-12-14T03:53:16.733Z,-4.65
2022-12-14T03:53:58.524Z,-4.67
2022-12-14T03:55:01.968Z,-4.66
2022-12-14T03:55:39.281Z,-4.68
2022-12-14T03:56:37.780Z,-4.72
2022-12-14T03:57:47.862Z,-4.70
2022-12-14T03:58:31.320Z,-4.70
2022-12-14T03:59:10.192Z,-4.72
2022-12-14T04:00:02.788Z,-4.71
2022-12-14T04:00:49.113Z,-4.72
2022-12-14T04:01:35.586Z,-4.73
2022-12-14T04:02:15.176Z,-4.74
2022-12-14T04:02:57.055Z,-4.74
2022-12-14T04:03:49.877Z,-4.74
2022-12-14T04:04:35.619Z,-4.75
2022-12-14T04:05:15.768Z,-4.74
2022-12-14T04:06:00.661Z,-4.75
2022-12-14T04:06:46.382Z,-4.76
2022-12-14T04:07:30.279Z,-4.80
2022-12-14T04:08:14.695Z,-4.81
2022-12-14T04:08:59.700Z,-4.80
2022-12-14T04:09:45.946Z,-4.80
2022-12-14T04:10:45.206Z,-4.82
2022-12-14T04:11:37.201Z,-4.82
2022-12-14T04:12:52.912Z,-4.84
2022-12-14T04:14:08.519Z,-4.85
2022-12-14T04:15:08.424Z,-4.88
2022-12-14T04:16:00.417Z,-4.88
2022-12-14T04:16:56.727Z,-4.88
2022-12-14T04:17:51.398Z,-4.89
2022-12-14T04:18:47.715Z,-4.90
2022-12-14T04:19:49.333Z,-4.89
2022-12-14T04:20:28.001Z,-4.89
2022-12-14T04:21:11.689Z,-4.92
2022-12-14T04:21:56.951Z,-4.90
2022-12-14T04:22:33.528Z,-4.91
2022-12-14T04:23:37.916Z,-4.91
2022-12-14T04:24:38.906Z,-4.96
2022-12-14T04:25:34.777Z,-4.93
2022-12-14T04:26:12.918Z,-4.95
2022-12-14T04:26:53.142Z,-4.96
2022-12-14T04:27:38.052Z,-4.95
2022-12-14T04:28:36.643Z,-4.95
2022-12-14T04:29:30.561Z,-4.98
2022-12-14T04:30:04.318Z,-5.00
2022-12-14T04:30:38.723Z,-5.02
2022-12-14T04:31:13.987Z,-5.02
2022-12-14T04:31:59.024Z,-5.03
2022-12-14T04:32:36.231Z,-5.06
2022-12-14T04:33:30.615Z,-5.08
2022-12-14T04:34:05.726Z,-5.10
2022-12-14T04:34:41.154Z,-5.12
2022-12-14T04:35:20.202Z,-5.14
2022-12-14T04:35:54.055Z,-5.17
2022-12-14T04:36:31.772Z,-5.16
2022-12-14T04:37:09.478Z,-5.18
2022-12-14T04:37:45.402Z,-5.22
2022-12-14T04:38:33.219Z,-5.22
2022-12-14T04:39:07.755Z,-5.22
2022-12-14T04:39:47.287Z,-5.23
2022-12-14T04:40:23.937Z,-5.25
2022-12-14T04:41:02.999Z,-5.23
2022-12-14T04:41:38.206Z,-5.22
2022-12-14T04:42:11.946Z,-5.26
2022-12-14T04:42:58.827Z,-5.24
2022-12-14T04:43:36.865Z,-5.24
2022-12-14T04:44:21.287Z,-5.24
2022-12-14T04:44:57.304Z,-5.26
2022-12-14T04:45:35.249Z,-5.26
2022-12-14T04:46:12.302Z,-5.26
2022-12-14T04:46:46.428Z,-5.28
2022-12-14T04:47:19.858Z,-5.27
2022-12-14T04:48:10.256Z,-5.29
2022-12-14T04:48:55.285Z,-5.31
2022-12-14T04:49:35.800Z,-5.30
2022-12-14T04:50:17.562Z,-5.33
2022-12-14T04:50:55.839Z,-5.34
2022-12-14T04:51:49.174Z,-5.32
2022-12-14T04:52:31.119Z,-5.34
2022-12-14T04:53:16.318Z,-5.36
2022-12-14T04:53:51.950Z,-5.37
2022-12-14T04:54:38.538Z,-5.38
2022-12-14T04:55:18.582Z,-5.38
2022-12-14T04:56:00.807Z,-5.39
2022-12-14T04:56:49.665Z,-5.45
2022-12-14T04:57:27.540Z,-5.39
2022-12-14T04:58:10.398Z,-5.41
2022-12-14T04:58:42.536Z,-5.39
2022-12-14T04:59:14.165Z,-5.40
2022-12-14T04:59:46.019Z,-5.43
2022-12-14T05:00:17.855Z,-5.42
2022-12-14T05:01:04.154Z,-5.38
2022-12-14T05:01:48.965Z,-5.38
2022-12-14T05:02:49.361Z,-5.38
2022-12-14T05:03:30.873Z,-5.37
2022-12-14T05:04:33.624Z,-5.38
2022-12-14T05:05:15.004Z,-5.38
2022-12-14T05:05:58.179Z,-5.39
2022-12-14T05:06:46.467Z,-5.39
2022-12-14T05:07:33.358Z,-5.41
2022-12-14T05:08:07.634Z,-5.39
2022-12-14T05:08:56.624Z,-5.41
2022-12-14T05:09:39.793Z,-5.40
2022-12-14T05:10:22.967Z,-5.41
2022-12-14T05:11:30.152Z,-5.46
2022-12-14T05:12:19.978Z,-5.44
2022-12-14T05:13:06.611Z,-5.45
2022-12-14T05:13:48.941Z,-5.48
2022-12-14T05:14:39.376Z,-5.48
2022-12-14T05:15:15.703Z,-5.48
2022-12-14T05:15:51.686Z,-5.48
2022-12-14T05:17:14.750Z,-5.48
2022-12-14T05:17:46.429Z,-5.48
2022-12-14T05:18:18.487Z,-5.47
2022-12-14T05:18:50.095Z,-5.48
2022-12-14T05:19:26.448Z,-5.48
2022-12-14T05:19:58.021Z,-5.50
2022-12-14T05:20:29.412Z,-5.50
2022-12-14T05:21:00.750Z,-5.51
2022-12-14T05:21:47.275Z,-5.50
2022-12-14T05:22:18.683Z,-5.52
2022-12-14T05:22:50.603Z,-5.50
2022-12-14T05:23:22.207Z,-5.52
2022-12-14T05:23:53.614Z,-5.51
2022-12-14T05:26:03.418Z,-5.51
2022-12-14T05:26:35.006Z,-5.52
2022-12-14T05:27:06.498Z,-5.52
2022-12-14T05:27:37.951Z,-5.52
2022-12-14T05:28:12.807Z,-5.53
2022-12-14T05:28:48.850Z,-5.53
2022-12-14T05:29:21.856Z,-5.53
2022-12-14T05:29:53.198Z,-5.53
2022-12-14T05:30:24.841Z,-5.54
2022-12-14T05:30:56.245Z,-5.54
2022-12-14T05:31:27.627Z,-5.54
2022-12-14T05:31:59.969Z,-5.53
2022-12-14T05:32:31.700Z,-5.54
2022-12-14T05:33:03.354Z,-5.54
2022-12-14T05:33:34.768Z,-5.56
2022-12-14T05:34:06.563Z,-5.54
2022-12-14T05:34:38.088Z,-5.55
2022-12-14T05:35:12.361Z,-5.58
2022-12-14T05:35:43.723Z,-5.55
2022-12-14T05:36:15.115Z,-5.56
2022-12-14T05:36:46.533Z,-5.56
2022-12-14T05:37:18.520Z,-5.57
2022-12-14T05:37:50.088Z,-5.57
2022-12-14T05:38:21.432Z,-5.60
2022-12-14T05:38:53.220Z,-5.57
2022-12-14T05:39:24.809Z,-5.61
2022-12-14T05:39:56.249Z,-5.62
2022-12-14T05:40:27.586Z,-5.61
2022-12-14T05:40:58.969Z,-5.63
2022-12-14T05:41:30.590Z,-5.62
2022-12-14T05:42:02.073Z,-5.62
2022-12-14T05:42:33.401Z,-5.62
2022-12-14T05:43:10.891Z,-5.62
2022-12-14T05:43:42.277Z,-5.63
2022-12-14T05:44:13.640Z,-5.64
2022-12-14T05:44:44.979Z,-5.64
2022-12-14T05:45:16.559Z,-5.62
2022-12-14T05:45:47.949Z,-5.63
2022-12-14T05:46:19.381Z,-5.66
2022-12-14T05:46:50.866Z,-5.64
2022-12-14T05:47:22.259Z,-5.67
2022-12-14T05:47:53.664Z,-5.66
2022-12-14T05:48:25.030Z,-5.66
2022-12-14T05:48:56.504Z,-5.64
2022-12-14T05:49:27.882Z,-5.66
2022-12-14T05:49:59.305Z,-5.64
2022-12-14T05:50:31.243Z,-5.67
2022-12-14T05:51:10.840Z,-5.64
2022-12-14T05:51:42.215Z,-5.66
2022-12-14T05:52:13.608Z,-5.70
2022-12-14T05:52:45.124Z,-5.71
2022-12-14T05:53:16.635Z,-5.68
2022-12-14T05:53:47.951Z,-5.70
2022-12-14T05:54:19.367Z,-5.73
2022-12-14T05:54:50.685Z,-5.71
2022-12-14T05:55:22.493Z,-5.75
2022-12-14T05:55:53.896Z,-5.76
2022-12-14T05:56:25.560Z,-5.74
2022-12-14T05:56:56.999Z,-5.75
2022-12-14T05:57:28.390Z,-5.76
2022-12-14T05:57:59.777Z,-5.74
2022-12-14T05:58:31.522Z,-5.73
2022-12-14T05:59:02.989Z,-5.75
2022-12-14T05:59:34.445Z,-5.76
2022-12-14T06:00:06.244Z,-5.74
2022-12-14T06:00:37.662Z,-5.76
2022-12-14T06:01:15.681Z,-5.72
2022-12-14T06:01:51.043Z,-5.74
2022-12-14T06:02:22.551Z,-5.72
2022-12-14T06:02:55.497Z,-5.73
2022-12-14T06:03:27.419Z,-5.74
2022-12-14T06:03:59.074Z,-5.75
2022-12-14T06:04:30.912Z,-5.74
2022-12-14T06:05:02.285Z,-5.74
2022-12-14T06:05:33.646Z,-5.76
2022-12-14T06:06:07.390Z,-5.74
2022-12-14T06:06:38.865Z,-5.77
2022-12-14T06:07:11.498Z,-5.75
2022-12-14T06:07:42.887Z,-5.78
2022-12-14T06:08:14.210Z,-5.75
2022-12-14T06:08:46.082Z,-5.75
2022-12-14T06:09:18.251Z,-5.75
2022-12-14T06:09:49.637Z,-5.78
2022-12-14T06:10:21.035Z,-5.77
2022-12-14T06:10:53.035Z,-5.79
2022-12-14T06:11:24.998Z,-5.80
2022-12-14T06:11:56.497Z,-5.82
2022-12-14T06:12:27.976Z,-5.78
2022-12-14T06:12:59.420Z,-5.84
2022-12-14T06:13:31.112Z,-5.79
2022-12-14T06:14:02.557Z,-5.82
2022-12-14T06:14:33.977Z,-5.83
2022-12-14T06:15:05.903Z,-5.83
2022-12-14T06:15:37.279Z,-5.84
2022-12-14T06:16:12.020Z,-5.87
2022-12-14T06:16:45.347Z,-5.90
2022-12-14T06:17:16.701Z,-5.90
2022-12-14T06:17:48.137Z,-5.92
2022-12-14T06:18:19.737Z,-5.96
2022-12-14T06:18:53.584Z,-5.95
2022-12-14T06:19:24.980Z,-5.95
2022-12-14T06:19:56.409Z,-5.97
2022-12-14T06:20:27.838Z,-6.00
2022-12-14T06:20:59.180Z,-5.99
2022-12-14T06:21:33.487Z,-5.98
2022-12-14T06:22:04.892Z,-6.01
2022-12-14T06:22:36.850Z,-6.02
2022-12-14T06:23:08.291Z,-6.01
2022-12-14T06:23:40.134Z,-6.03
2022-12-14T06:24:12.850Z,-6.07
2022-12-14T06:24:44.367Z,-6.06
2022-12-14T06:25:15.894Z,-6.08
2022-12-14T06:25:53.619Z,-6.08
2022-12-14T06:26:26.262Z,-6.10
2022-12-14T06:26:57.612Z,-6.09
2022-12-14T06:27:29.189Z,-6.12
2022-12-14T06:28:00.622Z,-6.15
2022-12-14T06:28:32.170Z,-6.13
2022-12-14T06:29:04.406Z,-6.13
2022-12-14T06:29:35.719Z,-6.15
2022-12-14T06:30:07.918Z,-6.17
2022-12-14T06:30:39.491Z,-6.16
2022-12-14T06:31:20.221Z,-6.16
2022-12-14T06:31:51.717Z,-6.17
2022-12-14T06:32:23.568Z,-6.19
2022-12-14T06:32:54.970Z,-6.18
2022-12-14T06:33:26.672Z,-6.20
2022-12-14T06:34:00.013Z,-6.19
2022-12-14T06:34:36.744Z,-6.21
2022-12-14T06:35:10.047Z,-6.20
2022-12-14T06:35:45.396Z,-6.22
2022-12-14T06:36:24.892Z,-6.20
2022-12-14T06:36:56.331Z,-6.22
2022-12-14T06:37:27.772Z,-6.21
2022-12-14T06:37:59.172Z,-6.24
2022-12-14T06:38:30.633Z,-6.22
2022-12-14T06:39:05.713Z,-6.21
2022-12-14T06:39:37.211Z,-6.22
2022-12-14T06:40:09.335Z,-6.25
2022-12-14T06:40:40.767Z,-6.23
2022-12-14T06:41:12.303Z,-6.24
2022-12-14T06:41:44.426Z,-6.29
2022-12-14T06:42:15.948Z,-6.27
2022-12-14T06:42:47.834Z,-6.31
2022-12-14T06:43:19.188Z,-6.33
2022-12-14T06:43:51.168Z,-6.30
2022-12-14T06:44:22.526Z,-6.30
2022-12-14T06:44:53.982Z,-6.31
2022-12-14T06:45:25.491Z,-6.28
2022-12-14T06:45:57.389Z,-6.27
2022-12-14T06:46:28.809Z,-6.28
2022-12-14T06:47:00.307Z,-6.28
2022-12-14T06:47:31.732Z,-6.27
2022-12-14T06:48:03.250Z,-6.25
2022-12-14T06:48:34.576Z,-6.24
2022-12-14T06:49:07.002Z,-6.26
2022-12-14T06:49:38.395Z,-6.27
2022-12-14T06:50:10.257Z,-6.28
2022-12-14T06:50:41.589Z,-6.24
2022-12-14T06:51:12.915Z,-6.26
2022-12-14T06:51:44.511Z,-6.25
2022-12-14T06:52:15.926Z,-6.25
2022-12-14T06:52:50.549Z,-6.24
2022-12-14T06:53:21.963Z,-6.25
2022-12-14T06:53:55.930Z,-6.24
2022-12-14T06:54:27.601Z,-6.25
2022-12-14T06:54:58.967Z,-6.29
2022-12-14T06:55:30.413Z,-6.27
2022-12-14T06:56:10.031Z,-6.30
2022-12-14T06:56:42.726Z,-6.30
2022-12-14T06:57:14.096Z,-6.29
2022-12-14T06:57:45.467Z,-6.33
2022-12-14T06:58:16.907Z,-6.34
2022-12-14T06:58:48.381Z,-6.33
2022-12-14T06:59:19.987Z,-6.35
2022-12-14T06:59:51.397Z,-6.32
2022-12-14T07:00:24.473Z,-6.36
2022-12-14T07:00:55.980Z,-6.36
2022-12-14T07:01:28.603Z,-6.38
2022-12-14T07:02:00.241Z,-6.41
2022-12-14T07:02:32.083Z,-6.41
2022-12-14T07:03:03.733Z,-6.44
2022-12-14T07:03:36.090Z,-6.44
2022-12-14T07:04:08.688Z,-6.46
2022-12-14T07:04:41.864Z,-6.47
2022-12-14T07:05:14.002Z,-6.46
2022-12-14T07:05:48.970Z,-6.44
2022-12-14T07:06:22.124Z,-6.45
2022-12-14T07:06:53.496Z,-6.45
2022-12-14T07:07:24.815Z,-6.45
2022-12-14T07:07:56.137Z,-6.45
2022-12-14T07:08:29.245Z,-6.46
2022-12-14T07:09:01.531Z,-6.45
2022-12-14T07:09:32.890Z,-6.49
2022-12-14T07:10:05.923Z,-6.47
2022-12-14T07:10:37.240Z,-6.49
2022-12-14T07:11:11.149Z,-6.50
2022-12-14T07:11:42.579Z,-6.51
2022-12-14T07:12:14.158Z,-6.50
2022-12-14T07:12:45.477Z,-6.52
2022-12-14T07:13:16.866Z,-6.53
2022-12-14T07:13:48.963Z,-6.52
2022-12-14T07:14:20.610Z,-6.53
2022-12-14T07:14:51.936Z,-6.53
2022-12-14T07:15:23.261Z,-6.54
2022-12-14T07:15:56.613Z,-6.55
2022-12-14T07:16:29.517Z,-6.56
2022-12-14T07:17:00.964Z,-6.57
2022-12-14T07:17:35.240Z,-6.60
2022-12-14T07:18:06.659Z,-6.62
2022-12-14T07:18:38.099Z,-6.57
2022-12-14T07:19:10.838Z,-6.59
2022-12-14T07:19:45.380Z,-6.56
2022-12-14T07:20:20.788Z,-6.59
2022-12-14T07:21:02.703Z,-6.57
2022-12-14T07:21:34.239Z,-6.56
2022-12-14T07:22:05.631Z,-6.56
2022-12-14T07:22:37.247Z,-6.57
2022-12-14T07:23:08.681Z,-6.57
2022-12-14T07:23:42.091Z,-6.59
2022-12-14T07:24:13.697Z,-6.60
2022-12-14T07:24:45.426Z,-6.63
2022-12-14T07:25:16.812Z,-6.63
2022-12-14T07:25:48.175Z,-6.59
2022-12-14T07:26:26.695Z,-6.64
2022-12-14T07:26:58.094Z,-6.60
2022-12-14T07:27:29.677Z,-6.59
2022-12-14T07:28:01.048Z,-6.59
2022-12-14T07:28:33.180Z,-6.59
2022-12-14T07:29:04.523Z,-6.59
2022-12-14T07:29:35.875Z,-6.60
2022-12-14T07:30:08.009Z,-6.63
2022-12-14T07:30:39.394Z,-6.62
2022-12-14T07:31:15.601Z,-6.62
2022-12-14T07:31:49.580Z,-6.64
2022-12-14T07:32:21.415Z,-6.62
2022-12-14T07:32:52.808Z,-6.63
2022-12-14T07:33:25.093Z,-6.63
2022-12-14T07:33:59.395Z,-6.66
2022-12-14T07:34:30.859Z,-6.66
2022-12-14T07:35:02.267Z,-6.63
2022-12-14T07:35:33.610Z,-6.62
2022-12-14T07:36:10.750Z,-6.62
2022-12-14T07:36:43.274Z,-6.62
2022-12-14T07:37:15.209Z,-6.62
2022-12-14T07:37:49.830Z,-6.61
2022-12-14T07:38:21.266Z,-6.63
2022-12-14T07:38:54.047Z,-6.63
2022-12-14T07:39:25.479Z,-6.65
2022-12-14T07:39:56.880Z,-6.67
2022-12-14T07:40:28.342Z,-6.64
2022-12-14T07:41:09.907Z,-6.67
2022-12-14T07:41:41.639Z,-6.68
2022-12-14T07:42:12.987Z,-6.71
2022-12-14T07:42:48.307Z,-6.72
2022-12-14T07:43:19.728Z,-6.74
2022-12-14T07:43:53.491Z,-6.74
2022-12-14T07:44:24.932Z,-6.76
2022-12-14T07:44:56.454Z,-6.75
2022-12-14T07:45:27.838Z,-6.77
2022-12-14T07:46:04.158Z,-6.75
2022-12-14T07:46:35.737Z,-6.79
2022-12-14T07:47:12.547Z,-6.75
2022-12-14T07:47:47.725Z,-6.77
2022-12-14T07:48:19.061Z,-6.78
2022-12-14T07:48:53.681Z,-6.75
2022-12-14T07:49:25.089Z,-6.75
2022-12-14T07:49:56.464Z,-6.76